Latest Coastal Weather Observations for Arlington Reef

IDQ60701

Issued at 6:51 pm EST Monday 31 August 2015 (issued every 10 minutes, with the page automatically refreshed every 10 minutes)

About coastal observations | Map of coastal stations | Coastal observations for QLD | Marine services | Other Formats
Station Details ID: 200879 Name: ARLINGTON REEF Lat: -16.72 Lon: 146.11 Height: 0.0 m
Data from the previous 72 hours. | See also: Recent months at Arlington Reef
Date/Time
EST
Temp

°C
Wind Pressure Rain
since 9am
mm
Weather Cloud Vis
km
Sea
Height
m
Swell
Dir
 
Speed
knots
Gust
knots
hPa Trend Height
m
Period
s
Dir
31/06:30pm - E 6 8 1014.0 - - - - - - - - -
31/06:00pm - E 6 7 1013.7 - - - - - - - - -
31/05:30pm - E 6 7 1013.5 - - - - - - - - -
31/05:00pm - E 6 7 1013.4 - - - - - - - - -
31/04:30pm - E 6 7 1013.3 - - - - - - - - -
31/04:00pm - E 6 8 1013.1 - - - - - - - - -
31/03:30pm - ESE 7 8 1013.1 - - - - - - - - -
31/03:00pm - ENE 5 7 1013.7 - - - - - - - - -
31/02:30pm - ENE 4 5 1014.2 - - - - - - - - -
31/02:00pm - ENE 3 5 1014.7 - - - - - - - - -
31/01:30pm - ENE 3 4 1015.0 - - - - - - - - -
31/01:00pm - ENE 2 4 1015.4 - - - - - - - - -
31/12:30pm - ENE 2 3 1015.7 - - - - - - - - -
31/12:00pm - ENE 2 3 1016.0 - - - - - - - - -
31/11:30am - ENE 1 2 1016.3 - - - - - - - - -
31/11:00am - CALM 0 0 1016.6 - - - - - - - - -
31/10:30am - ENE 2 3 1016.9 - - - - - - - - -
31/10:00am - ENE 3 4 1017.1 - - - - - - - - -
31/09:30am - ENE 3 4 1017.2 - - - - - - - - -
31/09:00am - ENE 4 6 1017.0 - - - - - - - - -
31/08:30am - ENE 4 4 1016.7 - - - - - - - - -
31/08:00am - ENE 5 5 1016.6 - - - - - - - - -
31/07:30am - ENE 4 6 1016.3 - - - - - - - - -
31/07:00am - ENE 5 6 1015.9 - - - - - - - - -
31/06:30am - ENE 2 3 1015.6 - - - - - - - - -
31/06:00am - ENE 4 5 1015.1 - - - - - - - - -
31/05:30am - ENE 5 7 1014.8 - - - - - - - - -
31/05:00am - ENE 4 7 1014.7 - - - - - - - - -
31/04:30am - CALM 0 0 1014.5 - - - - - - - - -
31/04:00am - CALM 0 0 1014.5 - - - - - - - - -
31/03:30am - CALM 0 0 1014.5 - - - - - - - - -
31/03:00am - CALM 0 0 1014.8 - - - - - - - - -
31/02:30am - CALM 0 0 1014.7 - - - - - - - - -
31/02:00am - CALM 0 0 1015.0 - - - - - - - - -
31/01:30am - CALM 0 0 1015.3 - - - - - - - - -
31/01:00am - CALM 0 0 1015.3 - - - - - - - - -
31/12:30am - CALM 0 0 1015.6 - - - - - - - - -
31/12:00am - CALM 0 0 1015.8 - - - - - - - - -
 
Date/Time
EST
Temp

°C
Wind Pressure Rain
since 9am
mm
Weather Cloud Vis
km
Sea
Height
m
Swell
Dir
 
Speed
knots
Gust
knots
hPa Trend Height
m
Period
s
Dir
30/11:30pm - CALM 0 0 1015.9 - - - - - - - - -
30/11:00pm - NE 1 2 1015.9 - - - - - - - - -
30/10:30pm - NE 1 2 1016.0 - - - - - - - - -
30/10:00pm - NE 2 3 1016.0 - - - - - - - - -
30/09:30pm - ENE 2 3 1016.0 - - - - - - - - -
30/09:00pm - ENE 2 4 1016.0 - - - - - - - - -
30/08:30pm - E 3 4 1015.7 - - - - - - - - -
30/08:00pm - E 4 5 1015.4 - - - - - - - - -
30/07:30pm - E 4 6 1015.0 - - - - - - - - -
30/07:00pm - E 5 7 1014.7 - - - - - - - - -
30/06:30pm - E 6 8 1014.3 - - - - - - - - -
30/06:00pm - E 7 8 1014.1 - - - - - - - - -
30/05:30pm - E 9 10 1013.8 - - - - - - - - -
30/05:00pm - ESE 9 10 1013.7 - - - - - - - - -
30/04:30pm - ESE 9 11 1013.7 - - - - - - - - -
30/04:00pm - ESE 8 9 1013.7 - - - - - - - - -
30/03:30pm - ESE 7 9 1013.9 - - - - - - - - -
30/03:00pm - ESE 8 9 1014.2 - - - - - - - - -
30/02:30pm - SE 8 9 1014.5 - - - - - - - - -
30/02:00pm - SE 8 9 1015.0 - - - - - - - - -
30/01:30pm - SSE 7 8 1015.4 - - - - - - - - -
30/01:00pm - SSE 7 9 1015.8 - - - - - - - - -
30/12:30pm - S 8 9 1016.3 - - - - - - - - -
30/12:00pm - S 9 11 1016.8 - - - - - - - - -
30/11:30am - S 8 9 1017.3 - - - - - - - - -
30/11:00am - S 8 10 1017.8 - - - - - - - - -
30/10:30am - S 9 11 1018.1 - - - - - - - - -
30/10:00am - S 9 11 1018.2 - - - - - - - - -
30/09:30am - S 9 11 1018.1 - - - - - - - - -
30/09:00am - S 9 10 1017.9 - - - - - - - - -
30/08:30am - SSE 6 8 1017.6 - - - - - - - - -
30/08:00am - SE 5 6 1017.2 - - - - - - - - -
30/07:30am - SE 5 6 1016.8 - - - - - - - - -
30/07:00am - ESE 5 6 1016.3 - - - - - - - - -
30/06:30am - ESE 5 6 1015.9 - - - - - - - - -
30/06:00am - E 5 6 1015.5 - - - - - - - - -
30/05:30am - ESE 4 5 1015.2 - - - - - - - - -
30/05:00am - ESE 6 7 1015.1 - - - - - - - - -
30/04:30am - ESE 7 8 1015.0 - - - - - - - - -
30/04:00am - ESE 6 7 1015.0 - - - - - - - - -
30/03:30am - ESE 6 8 1015.0 - - - - - - - - -
30/03:00am - ESE 6 8 1015.1 - - - - - - - - -
30/02:30am - SE 5 5 1015.2 - - - - - - - - -
30/02:00am - SE 4 5 1015.6 - - - - - - - - -
30/01:30am - SSE 5 6 1015.9 - - - - - - - - -
30/01:00am - SE 6 7 1016.2 - - - - - - - - -
30/12:30am - SE 6 7 1016.3 - - - - - - - - -
30/12:00am - SE 7 8 1016.7 - - - - - - - - -
 
Date/Time
EST
Temp

°C
Wind Pressure Rain
since 9am
mm
Weather Cloud Vis
km
Sea
Height
m
Swell
Dir
 
Speed
knots
Gust
knots
hPa Trend Height
m
Period
s
Dir
29/11:30pm - SE 7 8 1017.0 - - - - - - - - -
29/11:00pm - SE 7 8 1017.0 - - - - - - - - -
29/10:30pm - SE 9 9 1017.1 - - - - - - - - -
29/10:00pm - SE 9 11 1017.2 - - - - - - - - -
29/09:30pm - SE 10 11 1017.3 - - - - - - - - -
29/09:00pm - SE 9 11 1017.4 - - - - - - - - -
29/08:30pm - SE 9 12 1017.3 - - - - - - - - -
29/08:00pm - SSE 11 12 1017.0 - - - - - - - - -
29/07:30pm - SSE 10 13 1016.7 - - - - - - - - -
29/07:00pm - SSE 10 12 1016.4 - - - - - - - - -
29/06:30pm - SSE 10 12 1016.2 - - - - - - - - -
29/06:00pm - SSE 10 12 1016.0 - - - - - - - - -
29/05:30pm - SSE 11 13 1015.9 - - - - - - - - -
29/05:00pm - SSE 10 12 1015.8 - - - - - - - - -
29/04:30pm - SSE 9 12 1015.7 - - - - - - - - -
29/04:00pm - SSE 9 12 1015.7 - - - - - - - - -
29/03:30pm - SSE 9 11 1015.9 - - - - - - - - -
29/03:00pm - SSE 9 11 1016.2 - - - - - - - - -
29/02:30pm - SE 10 12 1016.5 - - - - - - - - -
29/02:00pm - SE 10 12 1016.9 - - - - - - - - -
29/01:30pm - SE 10 13 1017.4 - - - - - - - - -
29/01:00pm - SE 10 13 1017.8 - - - - - - - - -
29/12:30pm - SE 11 13 1018.1 - - - - - - - - -
29/12:00pm - SE 10 12 1018.6 - - - - - - - - -
29/11:30am - SE 10 12 1019.0 - - - - - - - - -
29/11:00am - SE 11 13 1019.5 - - - - - - - - -
29/10:30am - SE 10 13 1019.7 - - - - - - - - -
29/10:00am - SE 10 11 1019.9 - - - - - - - - -
29/09:30am - SE 10 11 1019.8 - - - - - - - - -
29/09:00am - SE 11 12 1019.5 - - - - - - - - -
29/08:30am - SE 10 12 1019.3 - - - - - - - - -
29/08:00am - SE 11 13 1018.9 - - - - - - - - -
29/07:30am - SE 10 12 1018.6 - - - - - - - - -
29/07:00am - SE 11 14 1018.1 - - - - - - - - -
29/06:30am - SE 12 14 1017.7 - - - - - - - - -
29/06:00am - SE 11 13 1017.4 - - - - - - - - -
29/05:30am - SE 11 13 1017.1 - - - - - - - - -
29/05:00am - SE 9 12 1016.8 - - - - - - - - -
29/04:30am - SE 9 11 1016.7 - - - - - - - - -
29/04:00am - SE 11 13 1016.6 - - - - - - - - -
29/03:30am - SE 11 13 1016.6 - - - - - - - - -
29/03:00am - SE 12 14 1016.8 - - - - - - - - -
29/02:30am - SE 12 14 1017.0 - - - - - - - - -
29/02:00am - SE 12 13 1017.1 - - - - - - - - -
29/01:30am - SE 12 14 1017.5 - - - - - - - - -
29/01:00am - SE 11 13 1017.7 - - - - - - - - -
29/12:30am - SE 11 14 1018.1 - - - - - - - - -
29/12:00am - SE 12 14 1018.4 - - - - - - - - -
 
Date/Time
EST
Temp

°C
Wind Pressure Rain
since 9am
mm
Weather Cloud Vis
km
Sea
Height
m
Swell
Dir
 
Speed
knots
Gust
knots
hPa Trend Height
m
Period
s
Dir
28/11:30pm - SE 11 13 1018.7 - - - - - - - - -
28/11:00pm - SE 13 15 1018.8 - - - - - - - - -
28/10:30pm - SE 13 16 1018.9 - - - - - - - - -
28/10:00pm - SE 14 17 1018.8 - - - - - - - - -
28/09:30pm - SE 14 17 1018.7 - - - - - - - - -
28/09:00pm - SSE 13 14 1018.7 - - - - - - - - -
28/08:30pm - SSE 13 15 1018.5 - - - - - - - - -
28/08:00pm - SSE 13 16 1018.2 - - - - - - - - -
28/07:30pm - SSE 12 15 1018.0 - - - - - - - - -
28/07:00pm - SSE 12 17 1017.6 - - - - - - - - -

Other Formats:

Comma delimited format used in spreadsheet applications
http://www.bom.gov.au/fwo/IDQ60701/IDQ60701.94284.axf

JavaScript Object Notation format (JSON) in row-major order
http://www.bom.gov.au/fwo/IDQ60701/IDQ60701.94284.json